Terminal Aerodrome Forecast
Issued by NWS Green Bay, WI

Home | Current Version | Previous Version | Text Only | Print | Product List | Glossary Off
Versions: 1 2 3 4 5 6 7 8 9 10 11 12 13 14 15 16 17 18 19 20 21 22 23 24 25 26 27 28 29 30 31 32 33 34 35 36 37 38 39 40 41

000
FTUS43 KGRB 231135
TAFGRB
TAF
KGRB 231135Z 2312/2412 18006KT 3SM -RA BR OVC005 WS014/19030KT
      TEMPO 2312/2313 -FZRA BR
     FM231500 22010G17KT 3SM BR OVC006
     FM231800 25012G20KT P6SM BKN012
     FM232200 27010G15KT P6SM SCT012
     FM240300 30007KT P6SM SKC=

USA.gov is the U.S. government's official web portal to all federal, state and local government web resources and services.